createdAt,value
2019-05-23T00:02:20.781Z,14.00
2019-05-23T00:05:00.856Z,14.00
2019-05-23T00:07:30.607Z,13.90
2019-05-23T00:10:03.266Z,13.90
2019-05-23T00:12:50.061Z,13.90
2019-05-23T00:15:25.624Z,13.80
2019-05-23T00:17:56.552Z,13.80
2019-05-23T00:20:25.630Z,13.80
2019-05-23T00:22:54.467Z,13.80
2019-05-23T00:25:24.694Z,13.70
2019-05-23T00:27:53.977Z,13.70
2019-05-23T00:30:32.232Z,13.70
2019-05-23T00:33:02.878Z,13.70
2019-05-23T00:35:33.721Z,13.70
2019-05-23T00:38:04.147Z,13.70
2019-05-23T00:40:33.602Z,13.60
2019-05-23T00:43:03.794Z,13.60
2019-05-23T00:45:32.814Z,13.60
2019-05-23T00:48:03.792Z,13.60
2019-05-23T00:50:33.319Z,13.60
2019-05-23T00:53:02.804Z,13.50
2019-05-23T00:55:32.539Z,13.50
2019-05-23T00:58:02.568Z,13.50
2019-05-23T01:00:32.364Z,13.50
2019-05-23T01:03:01.955Z,13.40
2019-05-23T01:05:31.102Z,13.40
2019-05-23T01:08:01.607Z,13.40
2019-05-23T01:10:30.726Z,13.30
2019-05-23T01:13:00.368Z,13.30
2019-05-23T01:15:29.600Z,13.30
2019-05-23T01:17:58.889Z,13.30
2019-05-23T01:20:51.421Z,13.30
2019-05-23T01:23:20.218Z,13.20
2019-05-23T01:25:49.715Z,13.20
2019-05-23T01:28:19.031Z,13.20
2019-05-23T01:30:49.505Z,13.20
2019-05-23T01:33:19.112Z,13.20
2019-05-23T01:35:49.073Z,13.10
2019-05-23T01:38:18.586Z,13.10
2019-05-23T01:40:47.495Z,13.10
2019-05-23T01:43:17.777Z,13.10
2019-05-23T01:45:46.804Z,13.10
2019-05-23T01:48:16.206Z,13.10
2019-05-23T01:50:46.285Z,13.10
2019-05-23T01:53:16.029Z,13.10
2019-05-23T01:55:44.807Z,13.00
2019-05-23T01:58:14.653Z,13.10
2019-05-23T02:00:44.100Z,13.00
2019-05-23T02:03:14.982Z,13.00
2019-05-23T02:05:44.289Z,13.00
2019-05-23T02:08:14.738Z,13.00
2019-05-23T02:10:44.047Z,12.90
2019-05-23T02:13:13.936Z,12.90
2019-05-23T02:15:44.238Z,12.80
2019-05-23T02:18:15.377Z,12.90
2019-05-23T02:20:46.125Z,12.90
2019-05-23T02:23:14.941Z,12.80
2019-05-23T02:25:44.177Z,12.80
2019-05-23T02:28:13.783Z,12.80
2019-05-23T02:30:43.198Z,12.80
2019-05-23T02:33:12.249Z,12.80
2019-05-23T02:35:41.119Z,12.80
2019-05-23T02:38:23.997Z,12.70
2019-05-23T02:40:59.660Z,12.70
2019-05-23T02:43:29.123Z,12.70
2019-05-23T02:46:02.419Z,12.60
2019-05-23T02:48:38.987Z,12.60
2019-05-23T02:51:13.060Z,12.50
2019-05-23T02:53:43.884Z,12.60
2019-05-23T02:56:15.707Z,12.50
2019-05-23T02:59:21.810Z,12.60
2019-05-23T03:02:18.659Z,12.60
2019-05-23T03:04:47.956Z,12.60
2019-05-23T03:07:20.313Z,12.50
2019-05-23T03:09:50.860Z,12.50
2019-05-23T03:12:19.966Z,12.50
2019-05-23T03:14:49.878Z,12.40
2019-05-23T03:17:21.001Z,12.40
2019-05-23T03:19:56.623Z,12.30
2019-05-23T03:22:31.706Z,12.30
2019-05-23T03:25:03.270Z,12.30
2019-05-23T03:27:35.752Z,12.20
2019-05-23T03:30:08.360Z,12.20
2019-05-23T03:32:49.012Z,12.20
2019-05-23T03:35:31.848Z,12.20
2019-05-23T03:38:01.769Z,12.20
2019-05-23T03:40:32.124Z,12.20
2019-05-23T03:43:01.175Z,12.10
2019-05-23T03:45:32.849Z,12.10
2019-05-23T03:48:03.462Z,12.20
2019-05-23T03:50:32.867Z,12.20
2019-05-23T03:53:02.045Z,12.20
2019-05-23T03:55:32.914Z,12.20
2019-05-23T03:58:02.986Z,12.20
2019-05-23T04:00:36.893Z,12.10
2019-05-23T04:03:07.607Z,12.20
2019-05-23T04:05:37.591Z,12.20
2019-05-23T04:08:07.602Z,12.20
2019-05-23T04:10:37.378Z,12.20
2019-05-23T04:13:06.874Z,12.20
2019-05-23T04:15:36.408Z,12.20
2019-05-23T04:18:05.467Z,12.30
2019-05-23T04:20:34.229Z,12.30
2019-05-23T04:23:04.295Z,12.30
2019-05-23T04:25:34.472Z,12.30
2019-05-23T04:28:03.679Z,12.40
2019-05-23T04:30:32.662Z,12.40
2019-05-23T04:33:01.686Z,12.40
2019-05-23T04:35:30.653Z,12.50
2019-05-23T04:37:59.816Z,12.50
2019-05-23T04:40:28.850Z,12.60
2019-05-23T04:42:57.795Z,12.70
2019-05-23T04:45:28.280Z,12.80
2019-05-23T04:47:57.779Z,12.80
2019-05-23T04:50:27.833Z,12.90
2019-05-23T04:52:57.089Z,13.00
2019-05-23T04:55:26.680Z,13.10
2019-05-23T04:57:55.680Z,13.20
2019-05-23T05:00:24.888Z,13.20
2019-05-23T05:02:54.457Z,13.30
2019-05-23T05:05:24.835Z,13.40
2019-05-23T05:07:53.827Z,13.60
2019-05-23T05:10:25.843Z,13.60
2019-05-23T05:12:54.942Z,13.70
2019-05-23T05:15:24.091Z,13.90
2019-05-23T05:17:52.895Z,14.00
2019-05-23T05:20:21.897Z,14.10
2019-05-23T05:22:51.037Z,14.30
2019-05-23T05:25:21.044Z,14.40
2019-05-23T05:27:50.784Z,14.50
2019-05-23T05:30:23.356Z,14.60
2019-05-23T05:32:52.359Z,14.70
2019-05-23T05:35:21.741Z,14.80
2019-05-23T05:37:50.704Z,14.90
2019-05-23T05:40:19.936Z,14.90
2019-05-23T05:42:48.762Z,14.90
2019-05-23T05:45:18.425Z,15.00
2019-05-23T05:47:47.258Z,15.10
2019-05-23T05:50:17.419Z,15.30
2019-05-23T05:52:46.317Z,15.40
2019-05-23T05:55:16.031Z,15.50
2019-05-23T05:57:44.813Z,15.50
2019-05-23T06:00:33.653Z,15.60
2019-05-23T06:03:05.539Z,15.60
2019-05-23T06:05:39.520Z,15.60
2019-05-23T06:08:10.401Z,15.60
2019-05-23T06:10:39.699Z,15.70
2019-05-23T06:13:08.459Z,15.80
2019-05-23T06:15:37.613Z,15.90
2019-05-23T06:18:07.047Z,15.90
2019-05-23T06:20:40.790Z,15.90
2019-05-23T06:23:10.920Z,16.00
2019-05-23T06:25:40.453Z,16.00
2019-05-23T06:28:09.822Z,16.10
2019-05-23T06:30:39.461Z,16.20
2019-05-23T06:33:22.472Z,16.30
2019-05-23T06:35:39.288Z,16.40
2019-05-23T06:38:08.640Z,16.50
2019-05-23T06:40:37.701Z,16.70
2019-05-23T06:43:06.828Z,16.70
2019-05-23T06:45:36.485Z,16.90
2019-05-23T06:48:05.637Z,17.00
2019-05-23T06:50:34.573Z,17.10
2019-05-23T06:53:05.108Z,17.10
2019-05-23T06:55:34.704Z,17.20
2019-05-23T06:58:04.484Z,17.30
2019-05-23T07:00:33.740Z,17.40
2019-05-23T07:03:02.740Z,17.50
2019-05-23T07:05:35.464Z,17.60
2019-05-23T07:08:04.918Z,17.70
2019-05-23T07:10:34.207Z,17.80
2019-05-23T07:13:03.117Z,17.80
2019-05-23T07:15:32.018Z,17.90
2019-05-23T07:18:02.223Z,18.00
2019-05-23T07:20:31.486Z,18.10
2019-05-23T07:23:01.037Z,18.20
2019-05-23T07:25:30.817Z,18.20
2019-05-23T07:28:00.324Z,18.30
2019-05-23T07:30:29.168Z,18.30
2019-05-23T07:32:58.093Z,18.40
2019-05-23T07:35:26.998Z,18.40
2019-05-23T07:37:55.843Z,18.40
2019-05-23T07:40:26.806Z,18.30
2019-05-23T07:42:55.892Z,18.40
2019-05-23T07:45:28.934Z,18.40
2019-05-23T07:47:58.812Z,18.40
2019-05-23T07:50:27.767Z,18.50
2019-05-23T07:52:58.250Z,18.60
2019-05-23T07:55:36.123Z,18.60
2019-05-23T07:58:05.798Z,18.70
2019-05-23T08:00:37.465Z,18.70
2019-05-23T08:03:08.964Z,18.80
2019-05-23T08:05:37.986Z,18.80
2019-05-23T08:08:07.631Z,18.90
2019-05-23T08:10:36.813Z,19.00
2019-05-23T08:13:05.849Z,19.10
2019-05-23T08:15:36.003Z,19.20
2019-05-23T08:18:06.335Z,19.30
2019-05-23T08:20:35.141Z,19.30
2019-05-23T08:23:03.973Z,19.40
2019-05-23T08:25:33.183Z,19.40
2019-05-23T08:28:02.595Z,19.40
2019-05-23T08:30:31.533Z,19.30
2019-05-23T08:33:01.057Z,19.30
2019-05-23T08:35:30.337Z,19.30
2019-05-23T08:38:00.516Z,19.50
2019-05-23T08:40:30.919Z,19.60
2019-05-23T08:43:00.098Z,19.80
2019-05-23T08:45:29.017Z,19.90
2019-05-23T08:47:58.040Z,20.00
2019-05-23T08:50:26.949Z,20.10
2019-05-23T08:52:56.868Z,20.10
2019-05-23T08:55:27.756Z,20.00
2019-05-23T08:57:57.940Z,20.00
2019-05-23T09:00:28.735Z,20.00
2019-05-23T09:02:59.282Z,20.10
2019-05-23T09:05:30.387Z,20.10
2019-05-23T09:07:59.976Z,20.20
2019-05-23T09:10:29.655Z,20.20
2019-05-23T09:12:59.411Z,20.30
2019-05-23T09:15:28.553Z,20.40
2019-05-23T09:17:57.911Z,20.40
2019-05-23T09:20:27.327Z,20.50
2019-05-23T09:22:56.538Z,20.60
2019-05-23T09:25:25.822Z,20.70
2019-05-23T09:27:56.007Z,20.70
2019-05-23T09:30:28.284Z,20.70
2019-05-23T09:32:57.437Z,20.80
2019-05-23T09:35:27.019Z,21.00
2019-05-23T09:37:56.418Z,21.10
2019-05-23T09:40:25.786Z,21.00
2019-05-23T09:42:54.738Z,21.00
2019-05-23T09:45:23.955Z,21.10
2019-05-23T09:47:52.886Z,21.30
2019-05-23T09:50:24.429Z,21.40
2019-05-23T09:52:53.345Z,21.40
2019-05-23T09:55:22.697Z,21.40
2019-05-23T09:57:51.559Z,21.50
2019-05-23T10:00:21.474Z,21.50
2019-05-23T10:02:50.361Z,21.50
2019-05-23T10:05:19.370Z,21.60
2019-05-23T10:07:48.312Z,21.90
2019-05-23T10:10:19.300Z,22.00
2019-05-23T10:12:49.662Z,21.70
2019-05-23T10:15:47.212Z,21.60
2019-05-23T10:18:19.752Z,21.70
2019-05-23T10:20:48.917Z,21.70
2019-05-23T10:23:17.851Z,21.50
2019-05-23T10:25:49.934Z,21.50
2019-05-23T10:28:19.171Z,21.70
2019-05-23T10:30:48.265Z,21.90
2019-05-23T10:33:17.516Z,21.90
2019-05-23T10:35:59.720Z,22.10
2019-05-23T10:38:17.393Z,22.20
2019-05-23T10:40:46.341Z,22.10
2019-05-23T10:43:15.307Z,22.10
2019-05-23T10:45:44.244Z,22.30
2019-05-23T10:48:13.887Z,22.70
2019-05-23T10:50:45.121Z,22.70
2019-05-23T10:53:14.325Z,22.50
2019-05-23T10:55:44.346Z,22.40
2019-05-23T10:58:14.971Z,22.30
2019-05-23T11:00:44.950Z,22.20
2019-05-23T11:03:15.194Z,22.10
2019-05-23T11:05:44.294Z,22.00
2019-05-23T11:08:14.735Z,22.10
2019-05-23T11:10:44.308Z,22.20
2019-05-23T11:13:13.247Z,21.80
2019-05-23T11:15:42.177Z,21.80
2019-05-23T11:18:11.971Z,22.10
2019-05-23T11:20:41.418Z,22.20
2019-05-23T11:23:12.663Z,22.10
2019-05-23T11:25:41.633Z,22.00
2019-05-23T11:28:10.649Z,21.80
2019-05-23T11:30:45.597Z,21.70
2019-05-23T11:33:14.828Z,21.70
2019-05-23T11:35:44.754Z,21.70
2019-05-23T11:38:14.011Z,21.80
2019-05-23T11:40:45.235Z,21.70
2019-05-23T11:43:13.992Z,21.80
2019-05-23T11:46:08.321Z,21.80
2019-05-23T11:48:38.331Z,21.90
2019-05-23T11:51:07.445Z,21.90
2019-05-23T11:53:36.495Z,22.00
2019-05-23T11:56:07.083Z,22.20
2019-05-23T11:58:35.971Z,22.20
2019-05-23T12:01:31.512Z,22.30
2019-05-23T12:04:13.827Z,22.30
2019-05-23T12:06:55.575Z,22.20
2019-05-23T12:09:21.439Z,21.90
2019-05-23T12:11:50.364Z,21.80
2019-05-23T12:14:19.509Z,21.80
2019-05-23T12:16:49.656Z,21.80
2019-05-23T12:19:18.928Z,21.90
2019-05-23T12:21:47.947Z,21.70
2019-05-23T12:24:16.915Z,21.40
2019-05-23T12:26:45.784Z,21.40
2019-05-23T12:29:15.181Z,21.70
2019-05-23T12:31:48.892Z,21.90
2019-05-23T12:34:14.835Z,21.70
2019-05-23T12:36:43.829Z,21.60
2019-05-23T12:39:12.995Z,21.40
2019-05-23T12:41:42.357Z,21.50
2019-05-23T12:44:11.271Z,21.50
2019-05-23T12:46:40.194Z,21.60
2019-05-23T12:49:21.974Z,21.60
2019-05-23T12:51:51.599Z,21.70
2019-05-23T12:54:20.526Z,21.70
2019-05-23T12:56:49.773Z,21.70
2019-05-23T12:59:18.645Z,21.70
2019-05-23T13:01:50.085Z,21.90
2019-05-23T13:04:19.926Z,21.70
2019-05-23T13:06:48.796Z,21.50
2019-05-23T13:09:17.994Z,21.40
2019-05-23T13:11:47.044Z,21.40
2019-05-23T13:14:16.500Z,21.50
2019-05-23T13:16:45.534Z,21.40
2019-05-23T13:19:15.760Z,21.50
2019-05-23T13:21:45.055Z,21.40
2019-05-23T13:24:14.035Z,21.40
2019-05-23T13:26:42.929Z,21.60
2019-05-23T13:29:11.864Z,21.80
2019-05-23T13:31:41.080Z,21.70
2019-05-23T13:34:09.880Z,21.70
2019-05-23T13:36:38.881Z,21.60
2019-05-23T13:39:10.331Z,21.50
2019-05-23T13:41:39.307Z,21.60
2019-05-23T13:44:08.515Z,21.80
2019-05-23T13:46:38.321Z,21.80
2019-05-23T13:49:07.513Z,21.70
2019-05-23T13:51:36.418Z,21.60
2019-05-23T13:54:05.487Z,21.60
2019-05-23T13:56:34.341Z,21.60
2019-05-23T13:59:03.573Z,21.50
2019-05-23T14:01:34.731Z,21.50
2019-05-23T14:04:03.682Z,21.50
2019-05-23T14:06:32.464Z,21.40
2019-05-23T14:09:01.488Z,21.40
2019-05-23T14:11:30.332Z,21.60
2019-05-23T14:14:01.864Z,22.10
2019-05-23T14:16:32.023Z,22.30
2019-05-23T14:19:01.008Z,22.20
2019-05-23T14:21:33.628Z,22.00
2019-05-23T14:24:02.585Z,21.90
2019-05-23T14:26:35.499Z,21.90
2019-05-23T14:29:04.504Z,21.80
2019-05-23T14:31:39.495Z,21.70
2019-05-23T14:34:17.209Z,21.70
2019-05-23T14:36:58.720Z,21.50
2019-05-23T14:39:39.819Z,21.60
2019-05-23T14:42:24.830Z,21.60
2019-05-23T14:44:53.663Z,21.50
2019-05-23T14:47:41.580Z,21.60
2019-05-23T14:50:35.735Z,22.00
2019-05-23T14:53:05.371Z,22.30
2019-05-23T14:55:34.262Z,22.60
2019-05-23T14:58:04.291Z,22.50
2019-05-23T15:00:34.518Z,22.60
2019-05-23T15:03:03.800Z,23.00
2019-05-23T15:05:32.769Z,23.30
2019-05-23T15:08:01.659Z,23.30
2019-05-23T15:10:30.907Z,23.20
2019-05-23T15:13:00.696Z,23.10
2019-05-23T15:15:29.706Z,22.90
2019-05-23T15:17:58.544Z,23.20
2019-05-23T15:20:27.491Z,23.40
2019-05-23T15:22:59.735Z,23.50
2019-05-23T15:25:26.903Z,23.70
2019-05-23T15:27:55.707Z,23.80
2019-05-23T15:30:24.901Z,23.80
2019-05-23T15:32:53.823Z,23.80
2019-05-23T15:35:22.604Z,23.70
2019-05-23T15:37:51.411Z,23.80
2019-05-23T15:40:20.876Z,23.90
2019-05-23T15:42:49.795Z,23.80
2019-05-23T15:45:18.639Z,23.60
2019-05-23T15:47:47.721Z,23.40
2019-05-23T15:50:23.761Z,23.10
2019-05-23T15:53:03.438Z,23.00
2019-05-23T15:55:52.797Z,22.80
2019-05-23T15:58:28.091Z,23.10
2019-05-23T16:01:07.306Z,23.40
2019-05-23T16:03:43.453Z,23.60
2019-05-23T16:06:14.675Z,23.60
2019-05-23T16:08:43.630Z,23.60
2019-05-23T16:11:16.667Z,23.60
2019-05-23T16:13:43.859Z,23.90
2019-05-23T16:16:12.622Z,24.10
2019-05-23T16:18:41.501Z,24.20
2019-05-23T16:21:11.277Z,24.30
2019-05-23T16:23:40.293Z,24.40
2019-05-23T16:26:11.560Z,24.50
2019-05-23T16:28:40.088Z,24.60
2019-05-23T16:31:09.126Z,24.40
2019-05-23T16:33:37.917Z,24.70
2019-05-23T16:36:06.858Z,24.50
2019-05-23T16:38:35.683Z,24.10
2019-05-23T16:41:04.943Z,24.00
2019-05-23T16:43:34.195Z,24.40
2019-05-23T16:46:03.121Z,24.90
2019-05-23T16:48:32.365Z,24.70
2019-05-23T16:51:01.181Z,24.30
2019-05-23T16:53:35.555Z,24.40
2019-05-23T16:56:09.893Z,24.80
2019-05-23T16:59:02.428Z,25.00
2019-05-23T17:01:55.561Z,25.00
2019-05-23T17:04:20.297Z,25.00
2019-05-23T17:06:58.351Z,25.00
2019-05-23T17:09:40.042Z,25.10
2019-05-23T17:12:39.929Z,25.30
2019-05-23T17:15:27.338Z,25.40
2019-05-23T17:18:14.203Z,25.60
2019-05-23T17:21:02.309Z,25.60
2019-05-23T17:23:59.155Z,25.70
2019-05-23T17:26:52.823Z,25.80
2019-05-23T17:29:30.491Z,25.90
2019-05-23T17:31:59.473Z,26.00
2019-05-23T17:34:28.516Z,25.80
2019-05-23T17:36:57.341Z,25.70
2019-05-23T17:39:28.401Z,25.40
2019-05-23T17:41:57.809Z,25.40
2019-05-23T17:44:27.102Z,25.40
2019-05-23T17:46:58.463Z,25.30
2019-05-23T17:49:27.477Z,25.30
2019-05-23T17:51:56.629Z,25.30
2019-05-23T17:54:27.704Z,25.40
2019-05-23T17:56:58.778Z,25.50
2019-05-23T17:59:28.012Z,25.60
2019-05-23T18:02:03.926Z,25.00
2019-05-23T18:04:36.752Z,24.60
2019-05-23T18:07:06.590Z,24.10
2019-05-23T18:09:35.812Z,23.80
2019-05-23T18:12:07.087Z,23.60
2019-05-23T18:14:37.948Z,23.60
2019-05-23T18:17:07.337Z,23.50
2019-05-23T18:19:36.748Z,23.40
2019-05-23T18:22:08.035Z,23.20
2019-05-23T18:24:37.693Z,23.20
2019-05-23T18:27:08.505Z,23.20
2019-05-23T18:29:37.836Z,23.10
2019-05-23T18:32:11.958Z,23.20
2019-05-23T18:34:40.999Z,23.20
2019-05-23T18:37:10.294Z,23.30
2019-05-23T18:39:41.451Z,23.50
2019-05-23T18:42:10.433Z,23.50
2019-05-23T18:44:39.738Z,23.50
2019-05-23T18:47:13.957Z,23.40
2019-05-23T18:49:43.586Z,23.40
2019-05-23T18:52:13.223Z,23.30
2019-05-23T18:54:42.380Z,23.20
2019-05-23T18:57:12.109Z,23.10
2019-05-23T18:59:41.243Z,23.00
2019-05-23T19:02:10.832Z,23.00
2019-05-23T19:04:40.309Z,22.90
2019-05-23T19:07:17.964Z,22.80
2019-05-23T19:23:02.135Z,22.20
2019-05-23T19:25:40.642Z,22.10
2019-05-23T19:27:56.704Z,22.00
2019-05-23T19:30:29.383Z,21.90
2019-05-23T19:32:58.924Z,21.80
2019-05-23T19:35:28.184Z,21.70
2019-05-23T19:38:01.350Z,21.70
2019-05-23T19:40:30.704Z,21.60
2019-05-23T19:43:02.475Z,21.50
2019-05-23T19:45:31.689Z,21.50
2019-05-23T19:48:01.293Z,21.40
2019-05-23T19:50:30.496Z,21.30
2019-05-23T19:53:00.048Z,21.20
2019-05-23T19:55:30.230Z,21.20
2019-05-23T19:58:00.853Z,21.10
2019-05-23T20:00:36.178Z,21.00
2019-05-23T20:03:04.344Z,20.90
2019-05-23T20:05:35.957Z,20.80
2019-05-23T20:08:05.472Z,20.80
2019-05-23T20:10:35.277Z,20.70
2019-05-23T20:13:04.656Z,20.70
2019-05-23T20:15:34.384Z,20.60
2019-05-23T20:18:03.435Z,20.40
2019-05-23T20:20:34.246Z,20.40
2019-05-23T20:23:03.482Z,20.30
2019-05-23T20:25:33.707Z,20.30
2019-05-23T20:28:02.867Z,20.20
2019-05-23T20:31:04.318Z,20.10
2019-05-23T20:33:33.328Z,20.10
2019-05-23T20:36:04.416Z,20.10
2019-05-23T20:38:33.549Z,20.00
2019-05-23T20:41:02.552Z,19.90
2019-05-23T20:43:31.493Z,19.90
2019-05-23T20:46:00.504Z,19.80
2019-05-23T20:48:30.517Z,19.70
2019-05-23T20:50:59.585Z,19.70
2019-05-23T20:53:28.488Z,19.60
2019-05-23T20:55:57.727Z,19.50
2019-05-23T20:58:26.723Z,19.40
2019-05-23T21:00:59.900Z,19.30
2019-05-23T21:03:29.905Z,19.20
2019-05-23T21:05:58.956Z,19.20
2019-05-23T21:08:28.561Z,19.10
2019-05-23T21:10:57.521Z,19.00
2019-05-23T21:13:26.510Z,19.00
2019-05-23T21:15:55.660Z,19.00
2019-05-23T21:18:24.660Z,18.90
2019-05-23T21:20:53.684Z,18.90
2019-05-23T21:23:24.081Z,18.90
2019-05-23T21:26:00.332Z,18.90
2019-05-23T21:28:33.028Z,18.80
2019-05-23T21:31:02.179Z,18.80
2019-05-23T21:33:32.717Z,18.70
2019-05-23T21:36:01.632Z,18.60
2019-05-23T21:38:30.813Z,18.70
2019-05-23T21:41:03.245Z,18.60
2019-05-23T21:43:30.473Z,18.60
2019-05-23T21:45:59.703Z,18.50
2019-05-23T21:48:28.626Z,18.50
2019-05-23T21:50:57.626Z,18.50
2019-05-23T21:53:26.483Z,18.40
2019-05-23T21:55:55.464Z,18.40
2019-05-23T21:58:24.774Z,18.30
2019-05-23T22:01:29.819Z,18.30
2019-05-23T22:04:18.273Z,18.30
2019-05-23T22:06:55.261Z,18.20
2019-05-23T22:09:22.530Z,18.10
2019-05-23T22:11:52.320Z,18.10
2019-05-23T22:14:21.917Z,18.10
2019-05-23T22:16:51.304Z,18.00
2019-05-23T22:19:21.597Z,18.00
2019-05-23T22:21:50.605Z,18.00
2019-05-23T22:24:20.176Z,18.00
2019-05-23T22:26:49.395Z,17.90
2019-05-23T22:29:18.565Z,17.90
2019-05-23T22:31:47.715Z,17.90
2019-05-23T22:34:51.053Z,17.80
2019-05-23T22:37:27.844Z,17.80
2019-05-23T22:39:56.888Z,17.70
2019-05-23T22:42:28.475Z,17.60
2019-05-23T22:44:57.871Z,17.60
2019-05-23T22:47:27.527Z,17.60
2019-05-23T22:49:56.496Z,17.50
2019-05-23T22:52:25.560Z,17.60
2019-05-23T22:54:54.436Z,17.50
2019-05-23T22:57:23.332Z,17.50
2019-05-23T22:59:52.183Z,17.50
2019-05-23T23:02:21.112Z,17.50
2019-05-23T23:04:49.990Z,17.40
2019-05-23T23:07:18.919Z,17.40
2019-05-23T23:09:47.888Z,17.50
2019-05-23T23:12:16.912Z,17.40
2019-05-23T23:14:47.568Z,17.30
2019-05-23T23:17:17.520Z,17.30
2019-05-23T23:19:46.312Z,17.30
2019-05-23T23:22:15.186Z,17.30
2019-05-23T23:24:44.127Z,17.30
2019-05-23T23:27:13.029Z,17.30
2019-05-23T23:29:41.897Z,17.30
2019-05-23T23:32:11.222Z,17.30
2019-05-23T23:34:40.153Z,17.20
2019-05-23T23:37:09.118Z,17.10
2019-05-23T23:39:38.075Z,17.10
2019-05-23T23:42:08.323Z,17.00
2019-05-23T23:44:36.322Z,17.00
2019-05-23T23:47:23.768Z,16.90
2019-05-23T23:50:10.725Z,16.70
2019-05-23T23:52:57.375Z,16.60
2019-05-23T23:55:44.221Z,16.50
2019-05-23T23:58:12.408Z,16.50
